Time;durP1;ratioP1;P1;durP2;ratioP2;P2;SDS_P1;SDS_P2;PMS_P1;PMS_P2;Temp;Humidity;BMP_temperature;BMP_pressure;BME280_temperature;BME280_humidity;BME280_pressure;Samples;Min_cycle;Max_cycle;Signal;HPM_P1;HPM_P2
2023/02/05 00:02:08;;;;;;;21.25;7.63;;;;;;;;;;5030346;28;20033;-39
2023/02/05 00:04:34;;;;;;;52.35;20.52;;;;;;;;;;5031721;28;20033;-39
2023/02/05 00:07:00;;;;;;;13.00;6.45;;;;;;;;;;5030602;28;20034;-39
2023/02/05 00:09:29;;;;;;;8.40;5.43;;;;;;;;;;5030857;28;20036;-37
2023/02/05 00:11:55;;;;;;;11.55;7.82;;;;;;;;;;5030502;28;20017;-40
2023/02/05 00:14:22;;;;;;;8.68;6.72;;;;;;;;;;5030568;28;20084;-40
2023/02/05 00:16:48;;;;;;;7.28;5.32;;;;;;;;;;5029579;28;20433;-40
2023/02/05 00:19:14;;;;;;;7.80;6.22;;;;;;;;;;5030782;28;20045;-39
2023/02/05 00:21:39;;;;;;;13.65;6.72;;;;;;;;;;5030196;28;20026;-40
2023/02/05 00:24:06;;;;;;;9.05;6.70;;;;;;;;;;5030476;28;20109;-40
2023/02/05 00:26:32;;;;;;;9.18;6.15;;;;;;;;;;5027451;28;20042;-39
2023/02/05 00:28:58;;;;;;;9.80;6.57;;;;;;;;;;5030221;28;20071;-40
2023/02/05 00:31:24;;;;;;;9.63;5.68;;;;;;;;;;5028647;28;20495;-42
2023/02/05 00:33:51;;;;;;;9.27;6.55;;;;;;;;;;5029901;28;20144;-40
2023/02/05 00:36:18;;;;;;;6.25;5.55;;;;;;;;;;5029020;28;20033;-39
2023/02/05 00:38:45;;;;;;;5.45;4.95;;;;;;;;;;5032057;28;20084;-40
2023/02/05 00:41:11;;;;;;;9.80;6.57;;;;;;;;;;5029975;28;20430;-39
2023/02/05 00:43:38;;;;;;;9.57;5.18;;;;;;;;;;5026394;28;20033;-40
2023/02/05 00:46:04;;;;;;;6.97;4.68;;;;;;;;;;5027012;28;20034;-39
2023/02/05 00:48:30;;;;;;;9.15;5.10;;;;;;;;;;5025783;28;20052;-39
2023/02/05 00:50:56;;;;;;;6.63;5.95;;;;;;;;;;5025620;28;20029;-40
2023/02/05 00:53:22;;;;;;;11.75;6.05;;;;;;;;;;5026412;28;20036;-38
2023/02/05 00:55:48;;;;;;;10.15;5.72;;;;;;;;;;5028671;28;20474;-40
2023/02/05 00:58:14;;;;;;;8.55;6.15;;;;;;;;;;5025038;28;20038;-40
2023/02/05 01:00:40;;;;;;;7.95;5.70;;;;;;;;;;5028308;28;20475;-40
2023/02/05 01:03:07;;;;;;;7.22;5.03;;;;;;;;;;5027656;28;20025;-38
2023/02/05 01:05:33;;;;;;;5.75;4.57;;;;;;;;;;5027208;28;20434;-38
2023/02/05 01:07:59;;;;;;;3.95;3.50;;;;;;;;;;5026754;28;20030;-40
2023/02/05 01:10:25;;;;;;;7.75;4.22;;;;;;;;;;5025157;28;20493;-40
2023/02/05 01:12:51;;;;;;;7.60;4.50;;;;;;;;;;5021951;28;20018;-40
2023/02/05 01:15:18;;;;;;;6.15;5.30;;;;;;;;;;5027995;28;20526;-40
2023/02/05 01:17:44;;;;;;;5.43;4.53;;;;;;;;;;5030254;28;20045;-40
2023/02/05 01:20:11;;;;;;;6.75;4.72;;;;;;;;;;5034229;28;20040;-39
2023/02/05 01:22:37;;;;;;;6.82;4.78;;;;;;;;;;5032617;28;20029;-40
2023/02/05 01:25:03;;;;;;;11.15;6.25;;;;;;;;;;5029539;28;20475;-40
2023/02/05 01:27:29;;;;;;;9.90;5.70;;;;;;;;;;5031761;28;20080;-40
2023/02/05 01:29:55;;;;;;;5.80;4.68;;;;;;;;;;5032741;28;20033;-39
2023/02/05 01:32:21;;;;;;;5.40;4.82;;;;;;;;;;5033008;28;20102;-40
2023/02/05 01:34:47;;;;;;;5.50;4.53;;;;;;;;;;5032254;28;20033;-39
2023/02/05 01:37:13;;;;;;;5.43;4.40;;;;;;;;;;5028313;28;20055;-38
2023/02/05 01:39:39;;;;;;;5.60;4.57;;;;;;;;;;5030768;28;20033;-40
2023/02/05 01:42:14;;;;;;;7.60;4.28;;;;;;;;;;5030970;28;20041;-40
2023/02/05 01:44:40;;;;;;;4.85;3.90;;;;;;;;;;5028874;28;20084;-40
2023/02/05 01:47:06;;;;;;;7.47;5.20;;;;;;;;;;5027897;28;20095;-38
2023/02/05 01:49:32;;;;;;;6.25;3.72;;;;;;;;;;5028501;28;20033;-39
2023/02/05 01:51:59;;;;;;;5.40;4.90;;;;;;;;;;5030364;28;20037;-38
2023/02/05 01:54:28;;;;;;;6.47;4.30;;;;;;;;;;5028094;28;20099;-39
2023/02/05 01:56:53;;;;;;;;;;;;;;;;;;5030437;28;20049;-38
2023/02/05 01:59:23;;;;;;;4.32;3.92;;;;;;;;;;5030482;28;19920;-39
2023/02/05 02:01:50;;;;;;;4.60;3.90;;;;;;;;;;5027582;28;20042;-40
2023/02/05 02:04:20;;;;;;;6.88;4.65;;;;;;;;;;5030850;28;20084;-34
2023/02/05 02:06:46;;;;;;;6.65;5.05;;;;;;;;;;5030639;28;20026;-35
2023/02/05 02:09:12;;;;;;;6.63;4.43;;;;;;;;;;5028730;28;20037;-35
2023/02/05 02:11:40;;;;;;;5.82;4.00;;;;;;;;;;5029166;28;20060;-34
2023/02/05 02:14:06;;;;;;;4.78;3.90;;;;;;;;;;5028064;28;20022;-35
2023/02/05 02:16:33;;;;;;;6.03;3.75;;;;;;;;;;5029906;28;20041;-35
2023/02/05 02:19:00;;;;;;;4.90;4.38;;;;;;;;;;5031261;28;20025;-35
2023/02/05 02:22:05;;;;;;;6.05;4.38;;;;;;;;;;5031925;28;20039;-35
2023/02/05 02:24:31;;;;;;;5.40;3.83;;;;;;;;;;5006531;28;20069;-33
2023/02/05 02:27:03;;;;;;;5.50;4.55;;;;;;;;;;5004612;28;20042;-35
2023/02/05 02:29:31;;;;;;;5.53;4.03;;;;;;;;;;5017920;28;20076;-35
2023/02/05 02:32:01;;;;;;;5.97;4.40;;;;;;;;;;5029030;28;21812;-35
2023/02/05 02:34:32;;;;;;;6.50;4.70;;;;;;;;;;5027507;28;20514;-35
2023/02/05 02:36:59;;;;;;;5.65;4.07;;;;;;;;;;5024976;28;20033;-35
2023/02/05 02:39:28;;;;;;;11.73;7.27;;;;;;;;;;5026626;28;20117;-35
2023/02/05 02:41:56;;;;;;;6.57;5.25;;;;;;;;;;5026602;28;20021;-34
2023/02/05 02:44:28;;;;;;;7.65;6.03;;;;;;;;;;5026365;28;20025;-36
2023/02/05 02:46:56;;;;;;;7.45;5.75;;;;;;;;;;5028231;28;20522;-35
2023/02/05 02:49:43;;;;;;;10.98;6.63;;;;;;;;;;5026124;28;20073;-34
2023/02/05 02:52:11;;;;;;;6.20;5.22;;;;;;;;;;5028888;28;20152;-35
2023/02/05 02:54:40;;;;;;;7.53;6.65;;;;;;;;;;5028394;28;20025;-32
2023/02/05 02:57:08;;;;;;;5.93;4.50;;;;;;;;;;5027984;28;20047;-35
2023/02/05 02:59:35;;;;;;;6.30;4.57;;;;;;;;;;5030177;28;20371;-34
2023/02/05 03:02:03;;;;;;;9.10;4.80;;;;;;;;;;5028295;28;20029;-35
2023/02/05 03:04:33;;;;;;;6.10;4.53;;;;;;;;;;5023570;28;20101;-33
2023/02/05 03:07:04;;;;;;;4.53;4.10;;;;;;;;;;5025440;28;20291;-32
2023/02/05 03:09:36;;;;;;;16.08;5.22;;;;;;;;;;5028079;28;20120;-36
2023/02/05 03:12:03;;;;;;;4.75;4.05;;;;;;;;;;5026983;28;20044;-35
2023/02/05 03:14:29;;;;;;;5.55;3.38;;;;;;;;;;5029563;28;20025;-35
2023/02/05 03:16:55;;;;;;;10.23;6.63;;;;;;;;;;5029920;28;20524;-35
2023/02/05 03:19:21;;;;;;;13.05;7.68;;;;;;;;;;5031408;28;20042;-35
2023/02/05 03:21:50;;;;;;;8.70;6.70;;;;;;;;;;5028059;28;20112;-35
2023/02/05 03:24:16;;;;;;;7.68;5.93;;;;;;;;;;5025685;28;20040;-35
2023/02/05 03:26:42;;;;;;;6.72;5.45;;;;;;;;;;5030775;28;20025;-34
2023/02/05 03:29:11;;;;;;;6.10;4.45;;;;;;;;;;5028955;28;20026;-36
2023/02/05 03:31:42;;;;;;;6.32;3.85;;;;;;;;;;5028234;28;20393;-35
2023/02/05 03:34:27;;;;;;;7.32;4.53;;;;;;;;;;5029514;28;20034;-35
2023/02/05 03:37:16;;;;;;;12.23;4.85;;;;;;;;;;5026971;28;20045;-34
2023/02/05 03:39:53;;;;;;;5.13;3.72;;;;;;;;;;5029388;28;20022;-36
2023/02/05 03:42:21;;;;;;;3.88;3.25;;;;;;;;;;5027025;28;20079;-35
2023/02/05 03:44:47;;;;;;;;;;;;;;;;;;5022614;28;20050;-34
2023/02/05 03:47:32;;;;;;;3.70;3.38;;;;;;;;;;5029111;28;20400;-35
2023/02/05 03:50:10;;;;;;;3.35;3.05;;;;;;;;;;5026765;28;20029;-35
2023/02/05 03:52:41;;;;;;;6.05;3.72;;;;;;;;;;5024176;28;20057;-35
2023/02/05 03:55:12;;;;;;;4.00;3.70;;;;;;;;;;5024485;28;20033;-35
2023/02/05 03:57:38;;;;;;;5.80;3.72;;;;;;;;;;5027898;28;20037;-35
2023/02/05 04:00:05;;;;;;;6.25;4.25;;;;;;;;;;5028000;28;20026;-35
2023/02/05 04:02:31;;;;;;;5.85;3.60;;;;;;;;;;5025624;28;20033;-34
2023/02/05 04:04:57;;;;;;;4.95;3.25;;;;;;;;;;5029064;28;20366;-33
2023/02/05 04:07:23;;;;;;;5.45;4.38;;;;;;;;;;5022885;28;20025;-36
2023/02/05 04:09:49;;;;;;;4.93;3.88;;;;;;;;;;5027158;28;20033;-36
2023/02/05 04:12:15;;;;;;;3.70;3.10;;;;;;;;;;5024452;28;20489;-35
2023/02/05 04:14:41;;;;;;;4.25;3.30;;;;;;;;;;5022105;28;20025;-35
2023/02/05 04:17:07;;;;;;;5.00;3.50;;;;;;;;;;5023632;28;20124;-35
2023/02/05 04:19:33;;;;;;;3.58;3.25;;;;;;;;;;5029229;28;20037;-33
2023/02/05 04:21:59;;;;;;;4.07;3.40;;;;;;;;;;5028032;28;20375;-35
2023/02/05 04:24:25;;;;;;;5.45;3.47;;;;;;;;;;5026979;28;20040;-35
2023/02/05 04:26:51;;;;;;;3.90;3.50;;;;;;;;;;5025356;28;20033;-34
2023/02/05 04:29:17;;;;;;;5.97;3.53;;;;;;;;;;5027484;28;20033;-35
2023/02/05 04:31:43;;;;;;;4.53;3.47;;;;;;;;;;5025801;28;20493;-35
2023/02/05 04:34:09;;;;;;;3.65;3.35;;;;;;;;;;5028080;28;20041;-35
2023/02/05 04:36:35;;;;;;;4.10;3.22;;;;;;;;;;5024343;28;20080;-35
2023/02/05 04:39:01;;;;;;;3.15;2.85;;;;;;;;;;5027600;28;20491;-35
2023/02/05 04:41:27;;;;;;;3.67;3.10;;;;;;;;;;5028404;28;20383;-32
2023/02/05 04:43:53;;;;;;;4.18;3.55;;;;;;;;;;5024236;28;20320;-35
2023/02/05 04:46:19;;;;;;;4.10;2.83;;;;;;;;;;5027621;28;20049;-35
2023/02/05 04:48:45;;;;;;;4.72;2.92;;;;;;;;;;5028676;28;20037;-34
2023/02/05 04:51:12;;;;;;;4.82;3.35;;;;;;;;;;5025154;28;20041;-35
2023/02/05 04:53:38;;;;;;;6.80;3.45;;;;;;;;;;5027483;28;20014;-35
2023/02/05 04:56:04;;;;;;;2.80;2.58;;;;;;;;;;5027086;28;20036;-33
2023/02/05 04:58:30;;;;;;;3.10;2.80;;;;;;;;;;5027253;28;20025;-35
2023/02/05 05:00:56;;;;;;;2.85;2.55;;;;;;;;;;5027417;28;20549;-35
2023/02/05 05:03:22;;;;;;;3.17;2.92;;;;;;;;;;5025215;28;20053;-34
2023/02/05 05:05:48;;;;;;;2.97;2.75;;;;;;;;;;5027400;28;20029;-36
2023/02/05 05:08:14;;;;;;;5.50;4.13;;;;;;;;;;5025706;28;21523;-35
2023/02/05 05:10:41;;;;;;;3.92;3.55;;;;;;;;;;5025071;28;20021;-35
2023/02/05 05:13:07;;;;;;;5.75;3.47;;;;;;;;;;5027214;28;20032;-35
2023/02/05 05:15:33;;;;;;;4.00;3.60;;;;;;;;;;5021878;28;20018;-32
2023/02/05 05:17:58;;;;;;;3.83;3.53;;;;;;;;;;5028075;28;20384;-32
2023/02/05 05:20:24;;;;;;;5.15;4.00;;;;;;;;;;5027950;28;20035;-33
2023/02/05 05:22:50;;;;;;;3.28;3.08;;;;;;;;;;5026711;28;20528;-37
2023/02/05 05:25:16;;;;;;;4.13;3.63;;;;;;;;;;5027440;28;20033;-35
2023/02/05 05:27:42;;;;;;;5.43;3.70;;;;;;;;;;5027152;28;20033;-31
2023/02/05 05:30:09;;;;;;;7.88;3.70;;;;;;;;;;5028128;28;20038;-35
2023/02/05 05:32:35;;;;;;;18.25;8.07;;;;;;;;;;5024504;28;20025;-36
2023/02/05 05:35:01;;;;;;;7.70;4.53;;;;;;;;;;5024288;28;20053;-35
2023/02/05 05:37:27;;;;;;;4.70;3.60;;;;;;;;;;5024141;28;20077;-35
2023/02/05 05:45:22;;;;;;;3.17;2.90;;;;;;;;;;5026092;28;20080;-31
2023/02/05 05:47:48;;;;;;;3.15;2.95;;;;;;;;;;5024024;28;20050;-35
2023/02/05 05:50:14;;;;;;;3.53;3.22;;;;;;;;;;5026115;28;20025;-34
2023/02/05 05:52:40;;;;;;;4.07;3.25;;;;;;;;;;5027920;28;20017;-32
2023/02/05 05:55:06;;;;;;;6.03;4.85;;;;;;;;;;5023081;28;20083;-35
2023/02/05 05:57:32;;;;;;;5.20;4.18;;;;;;;;;;5026030;28;20117;-35
2023/02/05 05:59:58;;;;;;;4.13;2.70;;;;;;;;;;5027240;28;20113;-35
2023/02/05 06:02:25;;;;;;;4.13;3.58;;;;;;;;;;5024545;28;20095;-34
2023/02/05 06:04:51;;;;;;;2.63;2.40;;;;;;;;;;5031139;28;20034;-35
2023/02/05 06:07:17;;;;;;;7.38;4.22;;;;;;;;;;5029168;28;20112;-35
2023/02/05 06:09:43;;;;;;;3.80;3.50;;;;;;;;;;5030124;28;20129;-35
2023/02/05 06:12:09;;;;;;;5.05;4.00;;;;;;;;;;5028082;28;20030;-35
2023/02/05 06:14:35;;;;;;;4.82;4.15;;;;;;;;;;5029481;28;20022;-35
2023/02/05 06:17:01;;;;;;;4.18;3.25;;;;;;;;;;5028762;28;20475;-35
2023/02/05 06:19:27;;;;;;;5.03;4.43;;;;;;;;;;5030735;28;20087;-33
2023/02/05 06:21:53;;;;;;;4.45;4.05;;;;;;;;;;5030537;28;20029;-33
2023/02/05 06:24:19;;;;;;;3.88;3.58;;;;;;;;;;5031079;28;20495;-36
2023/02/05 06:26:45;;;;;;;4.50;3.85;;;;;;;;;;5027594;28;20434;-35
2023/02/05 06:29:11;;;;;;;7.25;5.03;;;;;;;;;;5027859;28;20171;-34
2023/02/05 06:31:37;;;;;;;4.43;3.85;;;;;;;;;;5027276;28;20025;-35
2023/02/05 06:34:02;;;;;;;6.72;4.47;;;;;;;;;;5044705;28;20029;-34
2023/02/05 06:36:28;;;;;;;6.07;4.45;;;;;;;;;;5029818;28;20026;-35
2023/02/05 06:38:54;;;;;;;5.28;4.43;;;;;;;;;;5028368;28;20029;-35
2023/02/05 06:41:20;;;;;;;4.80;4.20;;;;;;;;;;5027546;28;20548;-34
2023/02/05 06:43:46;;;;;;;5.85;4.38;;;;;;;;;;5029095;28;20026;-32
2023/02/05 06:46:12;;;;;;;4.70;3.90;;;;;;;;;;5028613;28;20033;-35
2023/02/05 06:48:38;;;;;;;5.65;3.90;;;;;;;;;;5028839;28;20041;-31
2023/02/05 06:51:05;;;;;;;7.07;3.15;;;;;;;;;;5029848;28;20548;-35
2023/02/05 06:53:31;;;;;;;3.38;3.08;;;;;;;;;;5032563;28;20018;-35
2023/02/05 06:55:57;;;;;;;5.13;4.38;;;;;;;;;;5043374;28;20367;-34
2023/02/05 06:58:23;;;;;;;9.35;4.03;;;;;;;;;;5033175;28;20025;-34
2023/02/05 07:00:49;;;;;;;5.68;3.78;;;;;;;;;;5029655;28;20488;-35
2023/02/05 07:03:15;;;;;;;7.03;5.15;;;;;;;;;;5030942;28;20514;-35
2023/02/05 07:05:41;;;;;;;7.65;3.50;;;;;;;;;;5030093;28;20026;-35
2023/02/05 07:08:07;;;;;;;4.88;3.78;;;;;;;;;;5028589;28;20117;-35
2023/02/05 07:10:33;;;;;;;3.40;3.20;;;;;;;;;;5029898;28;20072;-34
2023/02/05 07:12:59;;;;;;;4.35;3.35;;;;;;;;;;5025015;28;20033;-35
2023/02/05 07:15:25;;;;;;;4.32;3.20;;;;;;;;;;5028153;28;20026;-35
2023/02/05 07:17:51;;;;;;;2.55;2.38;;;;;;;;;;5022546;28;20144;-34
2023/02/05 07:20:17;;;;;;;3.97;3.60;;;;;;;;;;5039793;28;20039;-34
2023/02/05 07:22:45;;;;;;;2.60;2.47;;;;;;;;;;5024948;28;20383;-35
2023/02/05 07:25:11;;;;;;;2.67;2.47;;;;;;;;;;5026890;28;20422;-35
2023/02/05 07:27:37;;;;;;;4.45;4.10;;;;;;;;;;5027066;28;20025;-34
2023/02/05 07:30:04;;;;;;;3.95;3.25;;;;;;;;;;5027404;28;20388;-35
2023/02/05 07:32:30;;;;;;;3.58;3.22;;;;;;;;;;5027843;28;20120;-35
2023/02/05 07:34:55;;;;;;;3.75;3.28;;;;;;;;;;5030264;28;20101;-34
2023/02/05 07:37:21;;;;;;;5.03;4.45;;;;;;;;;;5024752;28;20033;-34
2023/02/05 07:39:47;;;;;;;6.30;3.63;;;;;;;;;;5027150;28;20529;-35
2023/02/05 07:42:13;;;;;;;5.30;3.15;;;;;;;;;;5028864;28;20467;-35
2023/02/05 07:44:39;;;;;;;4.05;3.10;;;;;;;;;;5028153;28;20029;-35
2023/02/05 07:47:05;;;;;;;4.95;3.40;;;;;;;;;;5026853;28;20041;-35
2023/02/05 07:49:31;;;;;;;4.95;3.38;;;;;;;;;;5028044;28;20044;-34
2023/02/05 07:51:57;;;;;;;6.93;4.70;;;;;;;;;;5027693;28;20029;-35
2023/02/05 07:54:23;;;;;;;4.95;3.35;;;;;;;;;;5029284;28;20029;-34
2023/02/05 07:56:49;;;;;;;5.43;4.50;;;;;;;;;;5030401;28;20100;-35
2023/02/05 07:59:15;;;;;;;3.13;2.80;;;;;;;;;;5028102;28;20028;-35
2023/02/05 08:01:41;;;;;;;2.63;2.42;;;;;;;;;;5028820;28;20140;-32
2023/02/05 08:04:07;;;;;;;5.80;3.40;;;;;;;;;;5024734;28;20036;-36
2023/02/05 08:06:33;;;;;;;3.80;3.50;;;;;;;;;;5027535;28;20414;-35
2023/02/05 08:08:59;;;;;;;4.60;2.97;;;;;;;;;;5026074;28;20037;-35
2023/02/05 08:11:25;;;;;;;2.50;2.35;;;;;;;;;;5029639;28;20026;-35
2023/02/05 08:13:51;;;;;;;2.38;2.20;;;;;;;;;;5027082;28;20490;-35
2023/02/05 08:16:17;;;;;;;2.03;1.88;;;;;;;;;;5028560;28;20032;-34
2023/02/05 08:18:48;;;;;;;5.47;3.75;;;;;;;;;;5023494;28;20055;-35
2023/02/05 08:21:14;;;;;;;6.03;4.40;;;;;;;;;;5023671;28;20474;-33
2023/02/05 08:23:40;;;;;;;6.03;4.80;;;;;;;;;;5026923;28;20021;-35
2023/02/05 08:26:06;;;;;;;4.43;4.07;;;;;;;;;;5028609;28;20033;-35
2023/02/05 08:28:32;;;;;;;2.67;2.47;;;;;;;;;;5028079;28;20097;-34
2023/02/05 08:30:58;;;;;;;5.00;4.18;;;;;;;;;;5026360;28;20083;-35
2023/02/05 08:33:24;;;;;;;4.97;4.45;;;;;;;;;;5020651;28;20551;-32
2023/02/05 08:35:50;;;;;;;5.50;4.97;;;;;;;;;;5006631;28;20034;-35
2023/02/05 08:38:16;;;;;;;7.00;5.63;;;;;;;;;;5012886;28;20048;-35
2023/02/05 08:40:42;;;;;;;7.43;4.88;;;;;;;;;;5028549;28;20765;-35
2023/02/05 08:43:08;;;;;;;1.35;1.35;;;;;;;;;;5028028;28;20623;-35
2023/02/05 08:45:34;;;;;;;4.30;3.60;;;;;;;;;;5027333;28;20112;-34
2023/02/05 08:48:00;;;;;;;4.45;4.00;;;;;;;;;;5026267;28;20048;-35
2023/02/05 08:50:26;;;;;;;2.58;2.47;;;;;;;;;;5028339;28;20037;-35
2023/02/05 08:52:52;;;;;;;5.13;3.28;;;;;;;;;;5027327;28;20495;-31
2023/02/05 08:55:18;;;;;;;3.17;2.92;;;;;;;;;;5027457;28;20037;-35
2023/02/05 08:57:45;;;;;;;2.08;1.98;;;;;;;;;;5026380;28;20067;-29
2023/02/05 09:00:12;;;;;;;2.70;2.50;;;;;;;;;;5022480;28;20387;-33
2023/02/05 09:02:38;;;;;;;2.15;2.00;;;;;;;;;;5025420;28;20044;-33
2023/02/05 09:05:04;;;;;;;2.08;1.80;;;;;;;;;;5028501;28;20036;-35
2023/02/05 09:07:30;;;;;;;5.97;3.47;;;;;;;;;;5027626;28;20095;-34
2023/02/05 09:09:56;;;;;;;1.92;1.83;;;;;;;;;;5025494;28;20026;-33
2023/02/05 09:12:22;;;;;;;5.45;4.47;;;;;;;;;;5027982;28;20033;-34
2023/02/05 09:14:48;;;;;;;5.75;4.88;;;;;;;;;;5019566;28;20079;-32
2023/02/05 09:17:14;;;;;;;4.20;3.92;;;;;;;;;;5026379;28;20030;-35
2023/02/05 09:19:40;;;;;;;2.75;2.55;;;;;;;;;;5025966;28;20473;-35
2023/02/05 09:22:07;;;;;;;3.53;3.15;;;;;;;;;;5024197;28;20119;-35
2023/02/05 09:24:33;;;;;;;11.25;5.22;;;;;;;;;;5028388;28;20061;-34
2023/02/05 09:26:59;;;;;;;4.35;3.97;;;;;;;;;;5028731;28;20520;-31
2023/02/05 09:29:25;;;;;;;5.18;4.05;;;;;;;;;;5027827;28;20052;-35
2023/02/05 09:31:51;;;;;;;1.60;1.50;;;;;;;;;;5027337;28;20533;-35
2023/02/05 09:34:17;;;;;;;5.38;3.03;;;;;;;;;;5024920;28;20029;-36
2023/02/05 09:36:43;;;;;;;3.08;2.88;;;;;;;;;;5027641;28;20501;-35
2023/02/05 09:39:09;;;;;;;8.07;5.70;;;;;;;;;;5032021;28;20107;-35
2023/02/05 09:41:36;;;;;;;8.52;4.47;;;;;;;;;;5029382;28;20037;-35
2023/02/05 09:44:03;;;;;;;6.40;4.57;;;;;;;;;;5029130;28;20037;-33
2023/02/05 09:46:28;;;;;;;6.07;4.43;;;;;;;;;;5026848;28;20060;-35
2023/02/05 09:49:00;;;;;;;8.07;5.30;;;;;;;;;;5030201;28;20030;-35
2023/02/05 09:51:38;;;;;;;6.38;4.82;;;;;;;;;;5030448;28;20111;-31
2023/02/05 09:54:12;;;;;;;4.63;4.20;;;;;;;;;;5032884;28;20060;-33
2023/02/05 09:56:38;;;;;;;5.22;4.50;;;;;;;;;;5028933;28;20624;-35
2023/02/05 09:59:05;;;;;;;4.38;3.45;;;;;;;;;;5032580;28;20033;-34
2023/02/05 10:01:37;;;;;;;3.67;3.40;;;;;;;;;;5031599;28;20025;-35
2023/02/05 10:04:05;;;;;;;5.97;5.25;;;;;;;;;;5031058;28;20030;-34
2023/02/05 10:06:39;;;;;;;3.40;2.13;;;;;;;;;;5028265;28;20497;-32
2023/02/05 10:09:11;;;;;;;5.07;3.95;;;;;;;;;;5028936;28;20022;-35
2023/02/05 10:11:41;;;;;;;11.13;5.55;;;;;;;;;;5026830;28;20034;-32
2023/02/05 10:14:07;;;;;;;6.18;5.35;;;;;;;;;;5030098;28;20049;-35
2023/02/05 10:16:33;;;;;;;7.70;5.80;;;;;;;;;;5032421;28;20122;-35
2023/02/05 10:19:08;;;;;;;6.63;5.43;;;;;;;;;;5028248;28;20402;-34
2023/02/05 10:21:52;;;;;;;5.05;3.50;;;;;;;;;;5024869;28;20422;-33
2023/02/05 10:24:37;;;;;;;7.32;6.43;;;;;;;;;;5029674;28;20060;-35
2023/02/05 10:27:18;;;;;;;7.93;5.25;;;;;;;;;;5030109;28;20029;-34
2023/02/05 10:29:44;;;;;;;7.00;5.07;;;;;;;;;;5027695;28;20021;-34
2023/02/05 10:32:16;;;;;;;13.55;5.43;;;;;;;;;;5042669;28;20438;-35
2023/02/05 10:34:48;;;;;;;5.68;4.93;;;;;;;;;;5025755;28;20422;-35
2023/02/05 10:37:16;;;;;;;6.65;5.63;;;;;;;;;;5022269;28;20048;-32
2023/02/05 10:39:42;;;;;;;;;;;;;;;;;;5026360;28;20032;-34
2023/02/05 10:42:08;;;;;;;7.32;4.65;;;;;;;;;;5022232;28;20293;-34
2023/02/05 10:44:43;;;;;;;7.50;6.15;;;;;;;;;;5029889;28;20325;-35
2023/02/05 10:47:15;;;;;;;3.97;3.65;;;;;;;;;;5030783;28;20057;-34
2023/02/05 10:49:48;;;;;;;8.73;6.53;;;;;;;;;;5029682;28;20030;-35
2023/02/05 10:52:15;;;;;;;7.43;5.35;;;;;;;;;;5024244;28;20101;-33
2023/02/05 10:54:41;;;;;;;8.35;5.80;;;;;;;;;;5030406;28;20104;-35
2023/02/05 10:57:17;;;;;;;6.22;5.57;;;;;;;;;;5029793;28;20037;-34
2023/02/05 10:59:53;;;;;;;8.15;5.28;;;;;;;;;;5030230;28;20026;-35
2023/02/05 11:02:19;;;;;;;8.10;5.95;;;;;;;;;;5025327;28;20402;-34
2023/02/05 11:04:47;;;;;;;3.65;3.42;;;;;;;;;;5030229;28;20104;-35
2023/02/05 11:07:24;;;;;;;6.07;5.38;;;;;;;;;;5030123;28;20034;-35
2023/02/05 11:09:50;;;;;;;5.68;4.28;;;;;;;;;;5027768;28;20064;-34
2023/02/05 11:12:26;;;;;;;6.28;5.32;;;;;;;;;;5030553;28;20081;-34
2023/02/05 11:14:57;;;;;;;6.93;4.63;;;;;;;;;;5042297;28;20033;-34
2023/02/05 11:17:25;;;;;;;7.13;5.82;;;;;;;;;;5029106;28;20075;-34
2023/02/05 11:20:03;;;;;;;11.05;5.47;;;;;;;;;;5029966;28;20429;-35
2023/02/05 11:22:34;;;;;;;7.25;5.63;;;;;;;;;;5025355;28;20042;-35
2023/02/05 11:25:07;;;;;;;6.90;5.22;;;;;;;;;;5030743;28;20029;-34
2023/02/05 11:27:34;;;;;;;5.50;4.00;;;;;;;;;;5028101;28;20776;-34
2023/02/05 11:30:17;;;;;;;5.97;5.22;;;;;;;;;;5029886;28;20536;-33
2023/02/05 11:32:43;;;;;;;5.30;4.70;;;;;;;;;;5018918;28;20584;-34
2023/02/05 11:35:17;;;;;;;6.40;4.85;;;;;;;;;;5025541;28;20044;-34
2023/02/05 11:37:43;;;;;;;8.07;5.85;;;;;;;;;;5026240;28;20026;-35
2023/02/05 11:40:24;;;;;;;6.70;5.70;;;;;;;;;;5030186;28;20464;-34
2023/02/05 11:42:59;;;;;;;9.60;5.97;;;;;;;;;;5027009;28;20383;-33
2023/02/05 11:45:26;;;;;;;8.60;5.68;;;;;;;;;;5029963;28;20127;-35
2023/02/05 11:47:52;;;;;;;9.93;6.78;;;;;;;;;;5028941;28;20191;-35
2023/02/05 11:50:23;;;;;;;5.85;5.28;;;;;;;;;;5027344;28;20109;-32
2023/02/05 11:52:49;;;;;;;7.13;5.15;;;;;;;;;;5041805;28;20183;-34
2023/02/05 11:55:27;;;;;;;7.30;5.93;;;;;;;;;;5028909;28;20079;-34
2023/02/05 11:57:57;;;;;;;9.80;6.65;;;;;;;;;;5023178;28;20152;-35
2023/02/05 12:00:24;;;;;;;8.10;5.85;;;;;;;;;;5028452;28;20034;-35
2023/02/05 12:03:01;;;;;;;8.85;5.88;;;;;;;;;;5029186;28;20033;-35
2023/02/05 12:05:39;;;;;;;10.98;6.97;;;;;;;;;;5027952;28;20029;-35
2023/02/05 12:08:20;;;;;;;6.47;5.88;;;;;;;;;;5024680;28;20421;-34
2023/02/05 12:11:02;;;;;;;7.70;5.53;;;;;;;;;;5027969;28;20033;-30
2023/02/05 12:13:39;;;;;;;9.07;5.93;;;;;;;;;;5027643;28;20483;-34
2023/02/05 12:16:24;;;;;;;8.85;5.78;;;;;;;;;;5027609;28;20509;-34
2023/02/05 12:18:50;;;;;;;5.45;4.95;;;;;;;;;;5027073;28;20064;-34
2023/02/05 12:21:19;;;;;;;10.32;6.07;;;;;;;;;;5027537;28;20033;-35
2023/02/05 12:23:54;;;;;;;11.52;6.18;;;;;;;;;;5021378;28;20026;-31
2023/02/05 12:26:23;;;;;;;8.25;5.15;;;;;;;;;;5026920;28;20029;-35
2023/02/05 12:29:04;;;;;;;6.63;4.50;;;;;;;;;;5025677;28;20041;-34
2023/02/05 12:31:49;;;;;;;9.50;5.68;;;;;;;;;;5021911;28;20033;-34
2023/02/05 12:34:23;;;;;;;7.95;5.35;;;;;;;;;;5024544;28;20029;-32
2023/02/05 12:36:58;;;;;;;8.82;5.82;;;;;;;;;;5024601;28;20034;-35
2023/02/05 12:39:27;;;;;;;7.22;5.68;;;;;;;;;;5023101;28;20040;-35
2023/02/05 12:42:05;;;;;;;10.18;6.78;;;;;;;;;;5027012;28;20514;-34
2023/02/05 12:44:46;;;;;;;10.65;6.07;;;;;;;;;;5024381;28;20124;-34
2023/02/05 12:47:38;;;;;;;9.27;5.95;;;;;;;;;;5020113;28;20065;-34
2023/02/05 12:50:07;;;;;;;7.45;5.85;;;;;;;;;;5011038;28;20049;-35
2023/02/05 12:52:52;;;;;;;10.10;6.03;;;;;;;;;;5023526;28;20092;-32
2023/02/05 12:55:21;;;;;;;9.18;5.90;;;;;;;;;;5025521;28;20425;-34
2023/02/05 12:57:51;;;;;;;10.52;6.10;;;;;;;;;;5026252;28;20108;-35
2023/02/05 13:00:22;;;;;;;8.82;6.45;;;;;;;;;;5023544;28;20037;-34
2023/02/05 13:03:00;;;;;;;7.95;6.10;;;;;;;;;;5022426;28;20116;-34
2023/02/05 13:05:26;;;;;;;;;;;;;;;;;;5026759;28;20441;-34
2023/02/05 13:08:01;;;;;;;9.50;4.82;;;;;;;;;;5023617;28;20028;-34
2023/02/05 13:10:30;;;;;;;12.73;6.20;;;;;;;;;;5026726;28;20112;-33
2023/02/05 13:12:59;;;;;;;8.00;6.07;;;;;;;;;;5025582;28;20693;-33
2023/02/05 13:15:28;;;;;;;9.35;6.72;;;;;;;;;;5025969;28;20033;-30
2023/02/05 13:18:03;;;;;;;7.65;6.15;;;;;;;;;;5027285;28;20372;-33
2023/02/05 13:28:38;;;;;;;11.98;8.10;;;;;;;;;;5023447;28;20029;-34
2023/02/05 13:28:47;;;;;;;14.07;7.50;;;;;;;;;;5023620;28;20090;-33
2023/02/05 13:31:16;;;;;;;10.70;7.35;;;;;;;;;;5020788;28;20101;-34
2023/02/05 13:33:42;;;;;;;8.13;5.68;;;;;;;;;;5021056;28;20450;-34
2023/02/05 13:36:08;;;;;;;7.90;6.95;;;;;;;;;;5027063;28;20099;-35
2023/02/05 13:38:49;;;;;;;10.40;6.82;;;;;;;;;;5026636;28;20418;-35
2023/02/05 13:41:20;;;;;;;8.07;6.20;;;;;;;;;;5022957;28;20489;-34
2023/02/05 13:44:04;;;;;;;11.57;7.15;;;;;;;;;;5023336;28;20474;-34
2023/02/05 13:46:58;;;;;;;9.75;6.60;;;;;;;;;;5023446;28;20546;-33
2023/02/05 13:49:47;;;;;;;8.23;6.75;;;;;;;;;;5006265;28;20129;-32
2023/02/05 13:52:25;;;;;;;9.38;5.47;;;;;;;;;;5012252;28;20576;-34
2023/02/05 13:55:03;;;;;;;10.38;5.57;;;;;;;;;;5024560;28;20072;-34
2023/02/05 13:57:44;;;;;;;9.10;5.60;;;;;;;;;;5018759;28;20395;-35
2023/02/05 14:00:12;;;;;;;5.75;3.45;;;;;;;;;;5024867;28;20040;-35
2023/02/05 14:02:38;;;;;;;9.00;5.78;;;;;;;;;;5024974;28;20037;-35
2023/02/05 14:05:04;;;;;;;13.57;6.80;;;;;;;;;;5022773;28;20030;-34
2023/02/05 14:07:32;;;;;;;12.52;6.45;;;;;;;;;;5023954;28;20052;-34
2023/02/05 14:09:59;;;;;;;12.05;6.13;;;;;;;;;;5024569;28;20022;-33
2023/02/05 14:12:33;;;;;;;12.55;6.47;;;;;;;;;;5022514;28;20033;-35
2023/02/05 14:15:15;;;;;;;9.65;6.47;;;;;;;;;;5027463;28;20208;-33
2023/02/05 14:17:41;;;;;;;7.18;5.70;;;;;;;;;;5027786;28;20057;-34
2023/02/05 14:20:25;;;;;;;16.38;12.20;;;;;;;;;;5038033;28;20532;-30
2023/02/05 14:22:56;;;;;;;95.40;53.95;;;;;;;;;;5025688;28;20116;-33
2023/02/05 14:25:35;;;;;;;14.77;8.30;;;;;;;;;;5025739;28;20495;-33
2023/02/05 14:28:01;;;;;;;12.55;6.10;;;;;;;;;;5024051;28;20029;-34
2023/02/05 14:30:36;;;;;;;14.77;11.32;;;;;;;;;;5024807;28;20037;-35
2023/02/05 14:33:03;;;;;;;15.63;8.73;;;;;;;;;;5027547;28;20026;-34
2023/02/05 14:35:31;;;;;;;13.13;7.70;;;;;;;;;;5022971;28;20029;-32
2023/02/05 14:38:01;;;;;;;40.97;22.40;;;;;;;;;;5025910;28;20546;-34
2023/02/05 14:40:27;;;;;;;30.02;19.48;;;;;;;;;;5025439;28;20315;-34
2023/02/05 14:42:59;;;;;;;26.52;19.50;;;;;;;;;;5026569;28;20029;-33
2023/02/05 14:45:29;;;;;;;18.98;12.32;;;;;;;;;;5026645;28;20056;-35
2023/02/05 14:47:55;;;;;;;18.25;12.32;;;;;;;;;;5025698;28;20057;-29
2023/02/05 14:50:28;;;;;;;14.30;9.40;;;;;;;;;;5030122;28;20067;-35
2023/02/05 14:52:58;;;;;;;21.17;14.32;;;;;;;;;;5027299;28;20056;-34
2023/02/05 14:55:27;;;;;;;18.40;11.82;;;;;;;;;;5024471;28;20065;-34
2023/02/05 14:57:56;;;;;;;15.25;7.45;;;;;;;;;;5023454;28;20052;-34
2023/02/05 15:00:24;;;;;;;12.05;6.25;;;;;;;;;;5024627;28;20033;-32
2023/02/05 15:03:06;;;;;;;11.60;5.18;;;;;;;;;;5028721;28;20052;-35